ENBL/FDE METAR and TAF weather

Enter ICAO airport designator
Station Type Date Time Source
ENBL METAR 2021/09/28 03:50 UTC NOAA

ENBL 280350Z 20005KT 9999 FEW030 BKN035 09/07 Q1012


Station Type Date Time Source
ENBL Decoded METAR 2021/09/28 03:50 UTC NOAA

Forde / Bringeland, Norway (ENBL) 61-27N 005-52E
Sep 27, 2021 - 11:50 PM EDT / 2021.09.28 0350 UTC
Wind: from the SSW (200 degrees) at 6 MPH (5 KT):0
Visibility: greater than 7 mile(s):0
Sky conditions: mostly cloudy
Temperature: 48 F (9 C)
Dew Point: 44 F (7 C)
Relative Humidity: 87%
Pressure (altimeter): 29.88 in. Hg (1012 hPa)
ob: ENBL 280350Z 20005KT 9999 FEW030 BKN035 09/07 Q1012
cycle: 4

Station Type Date Time Source
ENBL TAF UTC NOAA

Error!

Example: see airport list